Time;durP1;ratioP1;P1;durP2;ratioP2;P2;SDS_P1;SDS_P2;PMS_P1;PMS_P2;Temp;Humidity;BMP_temperature;BMP_pressure;BME280_temperature;BME280_humidity;BME280_pressure;Samples;Min_cycle;Max_cycle;Signal;HPM_P1;HPM_P2
2022/04/25 00:00:49;;;;;;;12.70;4.70;;;9.50;99.90;;;;;;6181344;23;20399;-75
2022/04/25 00:03:19;;;;;;;15.45;4.50;;;9.50;99.90;;;;;;6210299;23;20040;-75
2022/04/25 00:05:50;;;;;;;14.10;3.53;;;9.50;99.90;;;;;;6210524;23;20052;-75
2022/04/25 00:08:19;;;;;;;12.85;4.28;;;9.50;99.90;;;;;;6210468;23;20028;-76
2022/04/25 00:10:45;;;;;;;13.38;3.90;;;9.50;99.90;;;;;;6184975;23;20128;-74
2022/04/25 00:13:13;;;;;;;11.57;4.40;;;9.50;99.90;;;;;;6185419;23;20021;-74
2022/04/25 00:15:41;;;;;;;10.77;3.85;;;9.50;99.90;;;;;;6160538;23;20024;-76
2022/04/25 00:18:10;;;;;;;17.73;4.63;;;9.50;99.90;;;;;;6184807;23;20028;-76
2022/04/25 00:20:45;;;;;;;15.70;4.28;;;9.50;99.90;;;;;;6185673;23;20515;-75
2022/04/25 00:23:11;;;;;;;15.13;4.43;;;9.50;99.90;;;;;;6184459;23;20408;-76
2022/04/25 00:25:37;;;;;;;20.58;4.97;;;9.50;99.90;;;;;;6185175;23;20032;-76
2022/04/25 00:28:07;;;;;;;11.40;4.30;;;9.50;99.90;;;;;;6160172;23;20027;-75
2022/04/25 00:30:33;;;;;;;13.60;4.57;;;9.40;99.90;;;;;;6160153;23;20020;-73
2022/04/25 00:33:00;;;;;;;11.25;4.45;;;9.50;99.90;;;;;;6160041;23;20285;-76
2022/04/25 00:35:30;;;;;;;11.13;3.70;;;9.50;99.90;;;;;;6184946;23;20155;-77
2022/04/25 00:38:10;;;;;;;18.90;5.05;;;9.50;99.90;;;;;;6187019;23;20043;-75
2022/04/25 00:40:38;;;;;;;12.68;4.03;;;9.50;99.90;;;;;;6209969;23;20024;-77
2022/04/25 00:43:05;;;;;;;14.77;4.18;;;9.50;99.90;;;;;;6159936;23;20040;-76
2022/04/25 00:45:35;;;;;;;12.93;4.65;;;9.50;99.90;;;;;;6184690;23;20361;-76
2022/04/25 00:48:23;;;;;;;11.70;3.70;;;9.50;99.90;;;;;;6161179;23;20055;-75
2022/04/25 00:50:49;;;;;;;16.88;4.35;;;9.50;99.90;;;;;;6230955;23;20017;-75
2022/04/25 00:53:15;;;;;;;8.88;3.40;;;9.50;99.90;;;;;;6181063;23;20082;-76
2022/04/25 00:55:43;;;;;;;14.55;3.70;;;9.50;99.90;;;;;;6156457;23;20056;-76
2022/04/25 00:58:12;;;;;;;14.48;3.60;;;9.50;99.90;;;;;;6205575;23;20021;-75
2022/04/25 01:00:40;;;;;;;13.05;3.72;;;9.50;99.90;;;;;;6180561;23;20028;-76
2022/04/25 01:03:10;;;;;;;11.32;3.85;;;9.50;99.90;;;;;;6180963;23;20070;-74
2022/04/25 01:05:41;;;;;;;14.70;3.88;;;9.50;99.90;;;;;;6232002;23;20021;-74
2022/04/25 01:08:11;;;;;;;13.18;4.40;;;9.50;99.90;;;;;;6156282;23;20357;-77
2022/04/25 01:10:41;;;;;;;11.30;3.33;;;9.50;99.90;;;;;;6204952;23;20057;-75
2022/04/25 01:13:13;;;;;;;13.60;3.65;;;9.40;99.90;;;;;;6184914;23;20108;-75
2022/04/25 01:15:39;;;;;;;17.75;7.07;;;9.40;99.90;;;;;;6158865;23;20033;-77
2022/04/25 01:18:07;;;;;;;10.63;4.13;;;9.40;99.90;;;;;;6212911;23;20025;-75
2022/04/25 01:20:36;;;;;;;16.52;4.78;;;9.40;99.90;;;;;;6213500;23;20033;-77
2022/04/25 01:28:52;;;;;;;11.88;4.00;;;9.30;99.90;;;;;;6236676;23;20028;-76
2022/04/25 01:31:18;;;;;;;20.60;5.57;;;9.30;99.90;;;;;;6211376;23;20108;-77
2022/04/25 01:33:53;;;;;;;10.80;4.50;;;9.30;99.90;;;;;;6211680;23;20044;-74
2022/04/25 01:36:23;;;;;;;9.40;3.90;;;9.30;99.90;;;;;;6213167;23;20086;-75
2022/04/25 01:38:56;;;;;;;14.23;5.28;;;9.30;99.90;;;;;;6211214;23;20063;-75
2022/04/25 01:41:22;;;;;;;12.77;4.32;;;9.30;99.90;;;;;;6228636;23;20020;-75
2022/04/25 01:43:49;;;;;;;13.93;5.05;;;9.30;99.90;;;;;;6210887;23;20104;-74
2022/04/25 01:46:17;;;;;;;14.70;5.18;;;9.20;99.90;;;;;;6187473;23;20028;-75
2022/04/25 01:48:45;;;;;;;14.00;5.32;;;9.20;99.90;;;;;;6187627;23;20028;-76
2022/04/25 01:51:14;;;;;;;10.85;4.70;;;9.20;99.90;;;;;;6246156;23;20028;-75
2022/04/25 01:53:40;;;;;;;11.10;4.47;;;9.20;99.90;;;;;;6200779;23;20051;-75
2022/04/25 01:56:10;;;;;;;17.00;5.38;;;9.20;99.90;;;;;;6219420;23;20025;-75
2022/04/25 01:58:38;;;;;;;14.40;4.60;;;9.30;99.90;;;;;;6236008;23;20020;-75
2022/04/25 02:01:08;;;;;;;12.95;4.45;;;9.20;99.90;;;;;;6185840;23;20047;-76
2022/04/25 02:03:36;;;;;;;12.75;5.13;;;9.30;99.90;;;;;;6235681;23;20060;-75
2022/04/25 02:06:03;;;;;;;14.63;4.90;;;9.30;99.90;;;;;;6160793;23;20086;-76
2022/04/25 02:08:32;;;;;;;10.30;4.20;;;9.30;99.90;;;;;;6210435;23;20468;-75
2022/04/25 02:13:42;;;;;;;10.07;3.88;;;9.30;99.90;;;;;;6186505;23;20473;-75
2022/04/25 02:16:12;;;;;;;14.05;5.22;;;9.30;99.90;;;;;;6186304;23;20020;-74
2022/04/25 02:18:40;;;;;;;14.73;4.50;;;9.30;99.90;;;;;;6188030;23;20468;-75
2022/04/25 02:21:08;;;;;;;14.80;5.18;;;9.30;99.90;;;;;;6162310;23;20023;-75
2022/04/25 02:23:35;;;;;;;9.82;3.95;;;9.30;99.90;;;;;;6187645;23;20028;-74
2022/04/25 02:26:06;;;;;;;17.83;4.95;;;9.30;99.90;;;;;;6187715;23;20019;-76
2022/04/25 02:28:34;;;;;;;12.25;4.18;;;9.30;99.90;;;;;;6187158;23;20039;-75
2022/04/25 02:31:01;;;;;;;12.98;4.95;;;9.30;99.90;;;;;;6187536;23;20033;-75
2022/04/25 02:33:27;;;;;;;11.90;4.20;;;9.40;99.90;;;;;;6187343;23;20142;-76
2022/04/25 02:35:57;;;;;;;13.10;4.93;;;9.30;99.90;;;;;;6163011;23;20052;-75
2022/04/25 02:38:38;;;;;;;9.60;3.50;;;9.40;99.90;;;;;;6208595;23;20103;-76
2022/04/25 02:41:08;;;;;;;12.60;3.70;;;9.40;99.90;;;;;;6212835;23;20212;-75
2022/04/25 02:43:58;;;;;;;10.65;4.18;;;9.40;99.90;;;;;;6170450;23;20489;-75
2022/04/25 02:46:23;;;;;;;10.35;3.80;;;9.40;99.90;;;;;;6162546;23;20027;-76
2022/04/25 02:48:52;;;;;;;8.75;3.78;;;9.40;99.90;;;;;;6186969;23;20039;-75
2022/04/25 02:51:19;;;;;;;10.93;4.07;;;9.40;99.90;;;;;;6188581;23;20082;-75
2022/04/25 02:53:44;;;;;;;10.45;4.18;;;9.40;99.90;;;;;;6187574;23;20017;-77
2022/04/25 02:56:10;;;;;;;12.77;4.40;;;9.30;99.90;;;;;;6187453;23;20460;-75
2022/04/25 02:58:39;;;;;;;10.38;3.80;;;9.30;99.90;;;;;;6212078;23;20025;-75
2022/04/25 03:01:06;;;;;;;15.10;3.90;;;9.30;99.90;;;;;;6186979;23;20039;-76
2022/04/25 03:03:36;;;;;;;9.90;4.78;;;9.30;99.90;;;;;;6213674;23;20094;-76
2022/04/25 03:06:05;;;;;;;11.93;5.10;;;9.30;99.90;;;;;;6186565;23;20025;-75
2022/04/25 03:08:34;;;;;;;14.02;4.47;;;9.20;99.90;;;;;;6162324;23;20021;-74
2022/04/25 03:11:11;;;;;;;10.98;4.43;;;9.20;99.90;;;;;;6186852;23;20016;-75
2022/04/25 03:13:40;;;;;;;9.65;4.57;;;9.20;99.90;;;;;;6186426;23;20067;-75
2022/04/25 03:16:12;;;;;;;12.00;4.10;;;9.20;99.90;;;;;;6237032;22;20025;-75
2022/04/25 03:18:41;;;;;;;13.45;4.38;;;9.20;99.90;;;;;;6186998;23;20028;-75
2022/04/25 03:21:13;;;;;;;12.95;4.57;;;9.20;99.90;;;;;;6210806;23;20120;-75
2022/04/25 03:23:39;;;;;;;14.40;4.05;;;9.20;99.90;;;;;;6214315;23;20055;-76
2022/04/25 03:26:06;;;;;;;11.93;5.38;;;9.20;99.90;;;;;;6162949;23;20087;-75
2022/04/25 03:28:32;;;;;;;11.90;4.10;;;9.20;99.90;;;;;;6187221;23;20029;-75
2022/04/25 03:31:07;;;;;;;8.18;4.65;;;9.20;99.90;;;;;;6236277;23;20108;-75
2022/04/25 03:33:35;;;;;;;11.57;4.75;;;9.20;99.90;;;;;;6186835;23;20052;-77
2022/04/25 03:36:04;;;;;;;11.50;4.45;;;9.10;99.90;;;;;;6187019;23;20171;-74
2022/04/25 03:38:34;;;;;;;11.40;4.32;;;9.10;99.90;;;;;;6214048;23;20024;-75
2022/04/25 03:41:00;;;;;;;15.40;4.60;;;9.10;99.90;;;;;;6213997;23;20021;-78
2022/04/25 03:43:26;;;;;;;9.75;4.20;;;9.10;99.90;;;;;;6213562;23;20527;-75
2022/04/25 03:45:52;;;;;;;11.88;5.28;;;9.10;99.90;;;;;;6185743;23;20025;-77
2022/04/25 03:48:20;;;;;;;10.85;4.32;;;9.10;99.90;;;;;;6161344;23;20021;-76
2022/04/25 03:50:46;;;;;;;9.43;4.45;;;9.10;99.90;;;;;;6211512;23;20056;-75
2022/04/25 03:53:13;;;;;;;8.50;4.30;;;9.10;99.90;;;;;;6161355;23;20028;-75
2022/04/25 03:58:24;;;;;;;12.95;4.22;;;9.10;99.90;;;;;;6186976;23;20032;-76
2022/04/25 04:00:54;;;;;;;10.93;4.18;;;9.00;99.90;;;;;;6186246;23;20020;-75
2022/04/25 04:03:24;;;;;;;11.48;4.13;;;9.00;99.90;;;;;;6235811;23;20103;-75
2022/04/25 04:05:54;;;;;;;10.07;4.00;;;9.00;99.90;;;;;;6182986;23;20016;-75
2022/04/25 04:08:20;;;;;;;8.75;3.75;;;9.00;99.90;;;;;;6236046;23;20026;-76
2022/04/25 04:10:46;;;;;;;10.70;4.22;;;9.00;99.90;;;;;;6186130;23;20060;-77
2022/04/25 04:13:16;;;;;;;7.60;3.83;;;9.00;99.90;;;;;;6185892;23;20123;-76
2022/04/25 04:15:45;;;;;;;11.73;4.22;;;9.00;99.90;;;;;;6237110;23;20483;-75
2022/04/25 04:18:12;;;;;;;16.17;7.18;;;9.00;99.90;;;;;;6185805;23;20037;-75
2022/04/25 04:20:39;;;;;;;12.10;4.10;;;9.00;99.90;;;;;;6212136;23;20410;-77
2022/04/25 04:23:08;;;;;;;11.50;3.95;;;9.00;99.90;;;;;;6185461;23;20462;-75
2022/04/25 04:25:34;;;;;;;9.88;3.70;;;9.00;99.90;;;;;;6213294;23;20159;-76
2022/04/25 04:28:06;;;;;;;14.45;4.07;;;9.00;99.90;;;;;;6213109;23;20092;-78
2022/04/25 04:30:37;;;;;;;9.73;3.72;;;9.00;99.90;;;;;;6161637;23;20464;-77
2022/04/25 04:33:05;;;;;;;11.75;3.78;;;9.00;99.90;;;;;;6181672;23;20028;-76
2022/04/25 04:38:16;;;;;;;8.73;4.00;;;9.00;99.90;;;;;;6213330;23;20025;-77
2022/04/25 04:40:43;;;;;;;10.30;4.28;;;9.00;99.90;;;;;;6213251;23;20024;-76
2022/04/25 04:43:19;;;;;;;13.27;3.90;;;9.00;99.90;;;;;;6211584;23;20379;-76
2022/04/25 04:45:46;;;;;;;9.43;3.55;;;9.00;99.90;;;;;;6186031;23;20025;-75
2022/04/25 04:48:12;;;;;;;13.05;4.57;;;9.00;99.90;;;;;;6210375;23;20457;-75
2022/04/25 04:50:39;;;;;;;12.57;4.07;;;9.00;99.90;;;;;;6212883;23;20025;-76
2022/04/25 04:53:07;;;;;;;8.75;4.38;;;9.00;99.90;;;;;;6161567;23;20048;-76
2022/04/25 04:55:36;;;;;;;11.15;4.10;;;9.00;99.90;;;;;;6186200;23;20017;-78
2022/04/25 04:58:05;;;;;;;7.07;3.78;;;9.00;99.90;;;;;;6211207;23;20344;-76
2022/04/25 05:00:31;;;;;;;10.50;4.53;;;9.00;99.90;;;;;;6212750;23;20094;-76
2022/04/25 05:02:58;;;;;;;8.73;3.83;;;9.00;99.90;;;;;;6161390;23;20028;-75
2022/04/25 05:05:25;;;;;;;13.45;5.70;;;9.00;99.90;;;;;;6211141;23;20397;-75
2022/04/25 05:07:52;;;;;;;17.50;5.47;;;9.00;99.90;;;;;;6186144;23;20391;-78
2022/04/25 05:10:21;;;;;;;11.68;4.53;;;9.10;99.90;;;;;;6185918;23;20074;-75
2022/04/25 05:12:50;;;;;;;12.13;4.10;;;9.10;99.90;;;;;;6160969;23;20456;-75
2022/04/25 05:15:22;;;;;;;12.88;4.15;;;9.10;99.90;;;;;;6236756;23;20025;-76
2022/04/25 05:17:53;;;;;;;12.63;4.70;;;9.20;99.90;;;;;;6182436;22;20031;-76
2022/04/25 05:20:22;;;;;;;11.07;4.97;;;9.10;99.90;;;;;;6210954;23;20074;-77
2022/04/25 05:23:13;;;;;;;15.15;4.95;;;9.20;99.90;;;;;;6211624;23;20025;-75
2022/04/25 05:25:40;;;;;;;9.63;3.67;;;9.20;99.90;;;;;;6186293;23;20480;-78
2022/04/25 05:28:06;;;;;;;14.13;3.75;;;9.20;99.90;;;;;;6236986;23;20056;-76
2022/04/25 05:30:32;;;;;;;10.63;3.92;;;9.20;99.90;;;;;;6210987;23;20050;-78
2022/04/25 05:33:05;;;;;;;10.38;3.55;;;9.20;99.90;;;;;;6211864;23;20020;-76
2022/04/25 05:35:37;;;;;;;12.18;3.58;;;9.20;99.90;;;;;;6187791;23;20021;-79
2022/04/25 05:38:10;;;;;;;11.25;4.03;;;9.30;99.90;;;;;;6213714;23;20111;-76
2022/04/25 05:40:38;;;;;;;14.65;4.22;;;9.20;99.90;;;;;;6236698;23;20017;-78
2022/04/25 05:43:09;;;;;;;11.50;3.80;;;9.20;99.90;;;;;;6213757;23;20028;-77
2022/04/25 05:45:38;;;;;;;12.23;3.88;;;9.20;99.90;;;;;;6187506;23;20024;-75
2022/04/25 05:54:08;;;;;;;11.48;3.83;;;9.30;99.90;;;;;;6156868;23;20029;-75
2022/04/25 05:56:35;;;;;;;10.80;3.70;;;9.30;99.90;;;;;;6132337;23;20087;-75
2022/04/25 05:59:01;;;;;;;8.88;4.05;;;9.30;99.90;;;;;;6156483;23;20444;-74
2022/04/25 06:01:29;;;;;;;13.18;3.80;;;9.30;99.90;;;;;;6156770;23;20028;-76
2022/04/25 06:03:55;;;;;;;11.70;4.03;;;9.30;99.90;;;;;;6156904;23;20021;-77
2022/04/25 06:06:26;;;;;;;9.02;4.30;;;9.30;99.90;;;;;;6132410;23;20029;-75
2022/04/25 06:08:54;;;;;;;12.40;3.95;;;9.30;99.90;;;;;;6132427;23;20032;-75
2022/04/25 06:11:21;;;;;;;11.38;4.20;;;9.30;99.90;;;;;;6157738;23;20581;-77
2022/04/25 06:13:47;;;;;;;17.02;3.65;;;9.30;99.90;;;;;;6158865;23;20029;-75
2022/04/25 06:16:13;;;;;;;17.23;4.75;;;9.30;99.90;;;;;;6164074;23;20104;-75
2022/04/25 06:18:44;;;;;;;9.43;3.50;;;9.30;99.90;;;;;;6110572;23;20059;-76
2022/04/25 06:21:14;;;;;;;12.45;3.53;;;9.30;99.90;;;;;;6132075;23;20032;-75
2022/04/25 06:23:39;;;;;;;8.07;3.33;;;9.30;99.90;;;;;;6108083;23;20025;-75
2022/04/25 06:26:05;;;;;;;11.52;3.13;;;9.30;99.90;;;;;;6156311;23;20111;-77
2022/04/25 06:28:31;;;;;;;15.82;3.30;;;9.40;99.90;;;;;;6181472;23;20673;-78
2022/04/25 06:30:58;;;;;;;10.90;3.45;;;9.40;99.90;;;;;;6156654;23;20036;-76
2022/04/25 06:33:25;;;;;;;11.57;3.90;;;9.40;99.90;;;;;;6156660;23;20028;-78
2022/04/25 06:35:51;;;;;;;12.20;3.80;;;9.50;99.90;;;;;;6156323;23;20029;-77
2022/04/25 06:38:21;;;;;;;15.27;3.60;;;9.60;99.90;;;;;;6131373;23;20115;-77
2022/04/25 06:40:50;;;;;;;11.30;3.17;;;9.70;99.90;;;;;;6155985;23;20507;-76
2022/04/25 06:43:16;;;;;;;11.65;3.80;;;9.80;99.90;;;;;;6132047;23;20035;-75
2022/04/25 06:45:43;;;;;;;8.45;3.00;;;9.90;99.90;;;;;;6156153;23;20532;-75
2022/04/25 06:48:18;;;;;;;11.43;3.30;;;9.90;99.90;;;;;;6155996;23;20020;-77
2022/04/25 06:50:44;;;;;;;12.30;3.22;;;9.90;99.90;;;;;;6155892;23;20021;-77
2022/04/25 06:53:11;;;;;;;11.23;3.42;;;10.00;99.90;;;;;;6156188;23;20069;-77
2022/04/25 06:55:37;;;;;;;9.63;2.90;;;10.00;99.90;;;;;;6131186;23;20021;-76
2022/04/25 06:58:04;;;;;;;13.07;3.42;;;10.10;99.90;;;;;;6154909;23;20025;-76
2022/04/25 07:00:31;;;;;;;9.82;3.42;;;10.10;99.90;;;;;;6107260;23;20126;-75
2022/04/25 07:02:57;;;;;;;13.18;3.42;;;10.20;99.90;;;;;;6119580;23;20083;-77
2022/04/25 07:05:24;;;;;;;13.68;4.00;;;10.20;99.90;;;;;;6187356;23;20024;-76
2022/04/25 07:07:51;;;;;;;10.48;3.45;;;10.30;99.90;;;;;;6186906;23;20016;-76
2022/04/25 07:10:18;;;;;;;12.00;3.72;;;10.30;99.90;;;;;;6186788;23;20068;-76
2022/04/25 07:12:45;;;;;;;12.35;4.32;;;10.30;99.90;;;;;;6212140;23;20020;-78
2022/04/25 07:15:11;;;;;;;11.43;3.30;;;10.30;99.90;;;;;;6186040;23;20028;-77
2022/04/25 07:17:43;;;;;;;17.98;2.75;;;10.30;99.90;;;;;;6213489;23;20095;-76
2022/04/25 07:20:13;;;;;;;7.78;2.90;;;10.40;99.90;;;;;;6212254;23;20027;-75
2022/04/25 07:30:53;;;;;;;8.50;3.33;;;10.80;99.90;;;;;;6213919;23;20034;-77
2022/04/25 07:33:19;;;;;;;6.85;2.78;;;10.90;99.90;;;;;;6186835;23;20017;-78
2022/04/25 07:35:45;;;;;;;12.23;3.85;;;11.00;99.90;;;;;;6237610;23;20032;-77
2022/04/25 07:38:13;;;;;;;10.63;2.70;;;11.10;99.90;;;;;;6214078;23;20022;-77
2022/04/25 07:40:41;;;;;;;11.95;3.10;;;11.30;99.90;;;;;;6213930;23;20055;-77
2022/04/25 07:43:11;;;;;;;8.02;2.47;;;11.50;99.90;;;;;;6214060;23;20021;-75
2022/04/25 07:45:37;;;;;;;7.63;3.92;;;11.60;99.90;;;;;;6211660;23;20064;-77
2022/04/25 07:48:06;;;;;;;9.93;3.40;;;11.60;99.90;;;;;;6213884;23;20028;-75
2022/04/25 07:50:32;;;;;;;7.18;2.65;;;11.50;99.90;;;;;;6236800;23;20020;-77
2022/04/25 07:52:59;;;;;;;9.52;3.08;;;11.50;99.90;;;;;;6186742;23;20128;-75
2022/04/25 07:55:26;;;;;;;10.00;3.40;;;11.50;99.90;;;;;;6161999;23;20399;-75
2022/04/25 07:57:53;;;;;;;10.82;3.03;;;11.60;99.90;;;;;;6186767;23;20108;-78
2022/04/25 08:00:23;;;;;;;11.02;2.70;;;11.80;99.90;;;;;;6236856;23;20030;-76
2022/04/25 08:02:50;;;;;;;13.35;3.15;;;12.00;99.90;;;;;;6211498;23;20017;-77
2022/04/25 08:05:34;;;;;;;10.55;3.58;;;12.30;99.90;;;;;;6210995;23;20020;-76
2022/04/25 08:08:06;;;;;;;8.35;2.72;;;12.60;99.90;;;;;;6212397;23;20020;-77
2022/04/25 08:10:33;;;;;;;11.20;3.20;;;13.00;99.90;;;;;;6236913;23;20580;-76
2022/04/25 08:18:28;;;;;;;8.48;2.05;;;14.00;99.90;;;;;;6192744;23;20323;-77
2022/04/25 08:20:54;;;;;;;11.23;3.13;;;14.00;99.90;;;;;;6156630;23;20060;-76
2022/04/25 08:23:22;;;;;;;10.18;2.85;;;13.90;99.90;;;;;;6181398;23;20021;-77
2022/04/25 08:25:48;;;;;;;7.30;2.88;;;13.70;99.90;;;;;;6206622;23;20491;-78
2022/04/25 08:28:25;;;;;;;14.30;2.90;;;13.40;99.90;;;;;;6206598;23;20453;-75
2022/04/25 08:31:13;;;;;;;5.78;2.30;;;13.40;99.90;;;;;;6202356;23;20107;-79
2022/04/25 08:33:42;;;;;;;9.85;2.00;;;13.40;99.90;;;;;;6131415;23;20025;-77
2022/04/25 08:36:09;;;;;;;8.18;2.63;;;13.30;99.90;;;;;;6156628;23;20021;-76
2022/04/25 08:38:43;;;;;;;12.73;2.72;;;13.20;99.90;;;;;;6206363;23;20029;-76
2022/04/25 08:41:12;;;;;;;6.38;2.60;;;13.30;99.90;;;;;;6156876;23;20052;-76
2022/04/25 08:43:41;;;;;;;13.00;3.63;;;13.60;99.90;;;;;;6156985;23;20028;-77
2022/04/25 08:46:16;;;;;;;11.00;3.10;;;13.80;99.90;;;;;;6206830;23;20027;-77
2022/04/25 08:48:44;;;;;;;11.55;3.13;;;13.70;99.90;;;;;;6183334;23;20083;-77
2022/04/25 08:51:12;;;;;;;7.15;2.45;;;13.90;99.90;;;;;;6181103;23;20063;-76
2022/04/25 08:53:42;;;;;;;11.15;2.80;;;14.10;99.90;;;;;;6156349;23;20483;-77
2022/04/25 08:56:09;;;;;;;8.57;2.38;;;14.20;99.60;;;;;;6180478;23;20021;-78
2022/04/25 08:58:40;;;;;;;8.50;2.65;;;14.40;99.30;;;;;;6206061;23;20758;-77
2022/04/25 09:01:16;;;;;;;7.57;2.38;;;14.40;99.10;;;;;;6181750;23;20090;-78
2022/04/25 09:03:42;;;;;;;12.57;2.60;;;14.70;99.00;;;;;;6180843;23;20326;-78
2022/04/25 09:06:10;;;;;;;6.22;2.38;;;15.00;98.70;;;;;;6182866;23;20570;-77
2022/04/25 09:08:37;;;;;;;7.05;2.72;;;15.10;98.20;;;;;;6206184;23;20057;-78
2022/04/25 09:13:48;;;;;;;10.67;2.60;;;14.90;97.80;;;;;;6207064;23;20044;-77
2022/04/25 09:16:16;;;;;;;9.98;2.60;;;14.80;98.10;;;;;;6181890;23;20252;-78
2022/04/25 09:18:43;;;;;;;6.88;2.25;;;14.80;98.10;;;;;;6133044;23;20047;-77
2022/04/25 09:21:14;;;;;;;7.65;2.53;;;15.00;98.00;;;;;;6155407;23;20525;-78
2022/04/25 09:23:52;;;;;;;7.00;2.30;;;15.00;97.90;;;;;;6176310;23;20026;-76
2022/04/25 09:26:37;;;;;;;;;;;15.00;97.80;;;;;;6154235;23;20029;-76
2022/04/25 09:29:04;;;;;;;5.50;2.03;;;14.80;97.10;;;;;;6128560;23;19920;-76
2022/04/25 09:31:31;;;;;;;8.30;2.22;;;14.90;97.80;;;;;;6128776;23;20021;-77
2022/04/25 09:34:14;;;;;;;4.90;2.35;;;15.00;97.50;;;;;;6128249;23;20108;-76
2022/04/25 09:36:48;;;;;;;9.88;2.33;;;15.10;97.40;;;;;;6129081;23;20025;-77
2022/04/25 09:39:41;;;;;;;7.95;3.05;;;15.70;96.90;;;;;;6155523;23;20438;-76
2022/04/25 09:42:12;;;;;;;8.80;2.25;;;16.10;95.20;;;;;;6127614;23;20087;-78
2022/04/25 09:44:58;;;;;;;5.78;2.05;;;16.30;95.60;;;;;;6130414;23;20021;-78
2022/04/25 09:47:36;;;;;;;9.38;2.97;;;16.50;95.20;;;;;;6153686;23;20029;-77
2022/04/25 09:50:18;;;;;;;9.80;2.00;;;16.70;94.50;;;;;;6154427;23;20446;-75
2022/04/25 09:52:56;;;;;;;10.85;2.55;;;16.90;94.60;;;;;;6129927;23;20323;-76
2022/04/25 09:55:24;;;;;;;7.60;2.50;;;17.00;94.40;;;;;;6155845;23;20021;-76
2022/04/25 09:57:54;;;;;;;9.65;2.35;;;17.20;94.50;;;;;;6128980;23;20025;-77
2022/04/25 10:00:39;;;;;;;9.68;3.08;;;17.60;94.10;;;;;;6152523;23;20022;-76
2022/04/25 10:03:07;;;;;;;5.70;2.05;;;17.80;93.10;;;;;;6177740;23;20111;-78
2022/04/25 10:05:41;;;;;;;8.07;2.20;;;17.60;92.60;;;;;;6152183;23;20029;-76
2022/04/25 10:08:11;;;;;;;8.83;2.07;;;17.50;92.80;;;;;;6151418;23;20056;-75
2022/04/25 10:10:49;;;;;;;9.63;2.55;;;17.50;92.80;;;;;;6152535;23;20029;-78
2022/04/25 10:13:17;;;;;;;11.55;2.40;;;17.40;92.80;;;;;;6151679;23;20075;-79
2022/04/25 10:15:51;;;;;;;11.90;2.88;;;17.40;93.10;;;;;;6128823;23;20501;-76
2022/04/25 10:18:17;;;;;;;9.95;2.60;;;17.40;93.20;;;;;;6194499;23;20063;-79
2022/04/25 10:20:46;;;;;;;9.43;2.28;;;17.60;92.50;;;;;;6205187;23;20044;-79
2022/04/25 10:23:13;;;;;;;11.60;2.60;;;18.10;92.50;;;;;;6184574;23;20029;-77
2022/04/25 10:25:54;;;;;;;11.27;2.38;;;18.30;92.00;;;;;;6161320;23;20018;-77
2022/04/25 10:28:50;;;;;;;11.63;2.80;;;18.10;91.40;;;;;;6211206;23;20035;-77
2022/04/25 10:31:41;;;;;;;9.05;3.45;;;18.10;91.10;;;;;;6160586;23;20075;-76
2022/04/25 10:34:10;;;;;;;10.93;2.10;;;18.10;91.40;;;;;;6184558;23;20036;-77
2022/04/25 10:36:38;;;;;;;10.32;2.50;;;18.30;91.70;;;;;;6184446;23;20075;-77
2022/04/25 10:39:20;;;;;;;7.50;2.67;;;18.00;91.20;;;;;;6182287;23;20025;-78
2022/04/25 10:44:47;;;;;;;10.70;2.70;;;18.20;91.80;;;;;;6156752;23;20021;-78
2022/04/25 10:47:13;;;;;;;7.43;2.53;;;18.50;91.40;;;;;;6182179;23;20025;-77
2022/04/25 10:49:46;;;;;;;9.50;2.45;;;18.30;91.60;;;;;;6207483;23;20353;-79
2022/04/25 10:52:37;;;;;;;8.82;3.30;;;18.40;91.60;;;;;;6157367;23;20353;-77
2022/04/25 10:55:29;;;;;;;8.77;2.67;;;18.50;90.60;;;;;;6206945;23;20031;-78
2022/04/25 10:58:12;;;;;;;5.60;2.20;;;18.70;90.40;;;;;;6157538;23;20025;-76
2022/04/25 11:00:44;;;;;;;26.85;4.97;;;18.40;88.40;;;;;;6182034;23;20113;-78
2022/04/25 11:03:16;;;;;;;12.50;2.40;;;18.40;89.50;;;;;;6158071;23;20048;-79
2022/04/25 11:05:48;;;;;;;10.18;2.67;;;18.40;89.30;;;;;;6183703;23;20025;-77
2022/04/25 11:08:20;;;;;;;21.55;2.90;;;18.70;89.80;;;;;;6182118;23;20025;-80
2022/04/25 11:10:46;;;;;;;8.13;2.13;;;18.50;88.20;;;;;;6182230;23;20048;-77
2022/04/25 11:13:18;;;;;;;10.38;2.55;;;18.40;89.10;;;;;;6182515;23;20465;-75
2022/04/25 11:15:48;;;;;;;7.82;3.13;;;18.30;89.40;;;;;;6134005;23;20021;-76
2022/04/25 11:18:30;;;;;;;8.65;2.40;;;18.10;89.70;;;;;;6139887;23;20120;-77
2022/04/25 11:20:58;;;;;;;11.63;3.13;;;17.90;89.90;;;;;;6127927;23;20339;-76
2022/04/25 11:23:29;;;;;;;8.90;2.60;;;17.90;90.60;;;;;;6152578;23;20029;-77
2022/04/25 11:25:59;;;;;;;8.65;2.55;;;18.20;90.70;;;;;;6127644;23;20025;-77
2022/04/25 11:28:28;;;;;;;17.38;2.60;;;18.20;90.10;;;;;;6127422;23;20056;-78
2022/04/25 11:31:12;;;;;;;11.30;2.78;;;18.10;90.10;;;;;;6152477;23;20018;-77
2022/04/25 11:33:46;;;;;;;9.73;3.03;;;18.50;90.00;;;;;;6177203;23;20025;-79
2022/04/25 11:36:15;;;;;;;11.07;2.13;;;18.80;90.00;;;;;;6154240;23;20022;-77
2022/04/25 11:41:32;;;;;;;8.88;2.30;;;19.20;84.60;;;;;;6127298;23;20338;-78
2022/04/25 11:43:58;;;;;;;13.30;2.65;;;19.40;84.60;;;;;;6127729;23;20021;-77
2022/04/25 11:46:33;;;;;;;12.95;2.80;;;19.40;84.30;;;;;;6177072;23;20476;-78
2022/04/25 11:49:00;;;;;;;8.50;2.13;;;19.50;83.60;;;;;;6102649;23;20571;-78
2022/04/25 11:51:40;;;;;;;9.88;2.75;;;19.80;82.80;;;;;;6177296;23;20346;-77
2022/04/25 11:54:08;;;;;;;5.82;2.38;;;20.00;81.00;;;;;;6152014;23;20089;-78
2022/04/25 11:56:36;;;;;;;9.02;2.50;;;20.20;80.60;;;;;;6127798;23;20017;-77
2022/04/25 11:59:12;;;;;;;6.78;2.20;;;20.60;78.70;;;;;;6126947;23;20164;-79
2022/04/25 12:02:00;;;;;;;7.82;2.60;;;20.80;77.30;;;;;;6057947;23;20070;-78
2022/04/25 12:04:35;;;;;;;10.77;2.33;;;20.70;75.60;;;;;;6016257;23;20755;-77
2022/04/25 12:07:13;;;;;;;8.18;2.33;;;20.60;75.70;;;;;;6087370;23;20023;-77
2022/04/25 12:15:40;;;;;;;5.10;1.95;;;21.10;66.90;;;;;;6087018;23;20271;-77
2022/04/25 12:18:21;;;;;;;8.25;2.38;;;21.50;68.70;;;;;;6076332;23;20068;-77
2022/04/25 12:21:20;;;;;;;9.38;2.35;;;21.50;66.70;;;;;;6115046;23;20023;-77
2022/04/25 12:23:54;;;;;;;7.50;2.38;;;21.40;65.10;;;;;;6113307;23;20065;-78
2022/04/25 12:26:27;;;;;;;5.80;1.83;;;21.10;64.40;;;;;;6095062;23;20477;-79
2022/04/25 12:29:05;;;;;;;5.07;1.80;;;21.20;63.00;;;;;;6120125;23;20073;-77
2022/04/25 12:31:46;;;;;;;6.78;2.00;;;21.50;63.30;;;;;;6120101;23;20033;-79
2022/04/25 12:34:14;;;;;;;6.45;2.03;;;21.60;62.30;;;;;;6119909;23;20488;-76
2022/04/25 12:36:54;;;;;;;7.85;2.20;;;21.50;62.10;;;;;;6095763;23;20746;-79
2022/04/25 12:39:19;;;;;;;10.48;1.88;;;21.40;60.60;;;;;;6071652;23;20450;-80
2022/04/25 12:41:58;;;;;;;5.30;1.50;;;21.50;59.40;;;;;;6120251;23;20101;-77
2022/04/25 12:44:38;;;;;;;7.53;2.15;;;21.50;58.40;;;;;;6095347;23;20022;-78
2022/04/25 12:47:23;;;;;;;12.23;2.50;;;21.70;57.70;;;;;;6120196;23;20037;-77
2022/04/25 12:49:50;;;;;;;;;;;21.70;56.30;;;;;;6096239;23;20026;-77
2022/04/25 12:52:16;;;;;;;8.13;2.10;;;21.90;57.60;;;;;;6115042;23;19926;-77
2022/04/25 12:54:42;;;;;;;11.18;2.20;;;22.20;57.60;;;;;;6155320;23;20411;-79
2022/04/25 12:57:32;;;;;;;10.48;2.13;;;22.30;55.30;;;;;;6155975;23;20052;-78
2022/04/25 13:00:17;;;;;;;6.50;1.92;;;22.40;55.50;;;;;;6156059;23;20032;-78
2022/04/25 13:02:50;;;;;;;9.68;2.08;;;23.10;52.80;;;;;;6132613;23;20017;-77
2022/04/25 13:05:17;;;;;;;9.77;2.35;;;23.20;51.50;;;;;;6156170;23;20063;-79
2022/04/25 13:07:54;;;;;;;8.85;1.85;;;23.70;51.10;;;;;;6205689;23;20075;-79
2022/04/25 13:10:25;;;;;;;8.52;1.60;;;23.50;49.90;;;;;;6182696;23;20021;-78
2022/04/25 13:12:58;;;;;;;8.27;1.80;;;23.60;50.70;;;;;;6205278;23;20028;-77
2022/04/25 13:15:25;;;;;;;8.30;1.83;;;24.10;49.70;;;;;;6155917;23;20487;-77
2022/04/25 13:17:54;;;;;;;7.35;1.70;;;24.40;49.30;;;;;;6065027;23;1675986;-78
2022/04/25 13:20:33;;;;;;;7.28;1.90;;;25.00;47.90;;;;;;6188454;23;20024;-79
2022/04/25 13:22:59;;;;;;;10.05;1.85;;;24.50;46.60;;;;;;6205796;23;20330;-78
2022/04/25 13:25:26;;;;;;;5.97;1.45;;;23.90;46.70;;;;;;6155717;23;20084;-78
2022/04/25 13:27:59;;;;;;;6.00;1.50;;;24.10;47.10;;;;;;6183277;23;20099;-79
2022/04/25 13:30:32;;;;;;;4.97;1.70;;;24.20;45.80;;;;;;6156483;23;20028;-78
2022/04/25 13:33:01;;;;;;;7.80;1.70;;;23.80;45.00;;;;;;6155754;23;20032;-76
2022/04/25 13:35:29;;;;;;;6.68;1.80;;;24.00;44.70;;;;;;6181161;23;20025;-80
2022/04/25 13:37:56;;;;;;;9.30;1.70;;;25.00;43.60;;;;;;6156396;23;20029;-79
2022/04/25 13:40:23;;;;;;;5.50;1.90;;;25.20;43.20;;;;;;6156515;23;20025;-79
2022/04/25 13:43:08;;;;;;;6.80;1.70;;;25.30;41.90;;;;;;6155945;23;20032;-78
2022/04/25 13:45:34;;;;;;;12.35;2.08;;;24.90;41.20;;;;;;6180395;23;20021;-77
2022/04/25 13:48:01;;;;;;;3.95;1.20;;;24.20;41.90;;;;;;6180722;23;20481;-75
2022/04/25 13:50:27;;;;;;;6.55;1.73;;;23.90;42.70;;;;;;6155558;23;20083;-78